Time;durP1;ratioP1;P1;durP2;ratioP2;P2;SDS_P1;SDS_P2;PMS_P1;PMS_P2;Temp;Humidity;BMP_temperature;BMP_pressure;BME280_temperature;BME280_humidity;BME280_pressure;Samples;Min_cycle;Max_cycle;Signal;HPM_P1;HPM_P2
2021/07/24 00:00:14;;;;;;;;;;;;;;;;;;1474272;40;7035;-65
2021/07/24 00:01:16;;;;;;;;;;;;;;;;;;1474254;40;7015;-65
2021/07/24 00:02:19;;;;;;;;;;;;;;;;;;1475056;40;7007;-65
2021/07/24 00:03:21;;;;;;;;;;;;;;;;;;1474121;40;7003;-65
2021/07/24 00:04:24;;;;;;;;;;;;;;;;;;1473998;40;7027;-65
2021/07/24 00:05:26;;;;;;;;;;;;;;;;;;1474214;40;6999;-65
2021/07/24 00:06:29;;;;;;;;;;;;;;;;;;1474616;40;7004;-64
2021/07/24 00:07:31;;;;;;;;;;;;;;;;;;1474522;40;7027;-65
2021/07/24 00:08:34;;;;;;;;;;;;;;;;;;1474348;40;7004;-64
2021/07/24 00:09:36;;;;;;;;;;;;;;;;;;1474725;40;7011;-65
2021/07/24 00:10:39;;;;;;;;;;;;;;;;;;1474923;40;6999;-65
2021/07/24 00:11:41;;;;;;;;;;;;;;;;;;1474481;40;7003;-65
2021/07/24 00:12:44;;;;;;;;;;;;;;;;;;1474456;40;6999;-65
2021/07/24 00:13:46;;;;;;;;;;;;;;;;;;1474827;40;7003;-64
2021/07/24 00:14:48;;;;;;;;;;;;;;;;;;1474497;40;7000;-65
2021/07/24 00:15:51;;;;;;;;;;;;;;;;;;1474700;40;7019;-65
2021/07/24 00:16:53;;;;;;;;;;;;;;;;;;1474130;40;7050;-65
2021/07/24 00:17:56;;;;;;;;;;;;;;;;;;1474776;40;7008;-64
2021/07/24 00:18:59;;;;;;;;;;;;;;;;;;1475037;40;7035;-65
2021/07/24 00:20:01;;;;;;;;;;;;;;;;;;1475094;40;7035;-65
2021/07/24 00:21:04;;;;;;;;;;;;;;;;;;1475164;40;7031;-65
2021/07/24 00:22:06;;;;;;;;;;;;;;;;;;1474795;40;7012;-64
2021/07/24 00:23:11;;;;;;;;;;;;;;;;;;1474769;40;7604;-64
2021/07/24 00:24:13;;;;;;;;;;;;;;;;;;1474975;40;7047;-67
2021/07/24 00:25:16;;;;;;;;;;;;;;;;;;1477873;40;6995;-67
2021/07/24 00:26:18;;;;;;;;;;;;;;;;;;1474267;40;7691;-67
2021/07/24 00:27:21;;;;;;;;;;;;;;;;;;1474655;40;7076;-66
2021/07/24 00:28:24;;;;;;;;;;;;;;;;;;1474260;40;7204;-67
2021/07/24 00:29:26;;;;;;;;;;;;;;;;;;1476139;40;7011;-66
2021/07/24 00:30:29;;;;;;;;;;;;;;;;;;1478365;40;7027;-66
2021/07/24 00:31:32;;;;;;;;;;;;;;;;;;1478481;40;7031;-67
2021/07/24 00:32:35;;;;;;;;;;;;;;;;;;1474896;40;7007;-67
2021/07/24 00:33:37;;;;;;;;;;;;;;;;;;1474658;40;7908;-66
2021/07/24 00:34:39;;;;;;;;;;;;;;;;;;1477503;40;7861;-66
2021/07/24 00:35:42;;;;;;;;;;;;;;;;;;1478555;40;7012;-67
2021/07/24 00:36:44;;;;;;;;;;;;;;;;;;1478477;40;7007;-67
2021/07/24 00:37:47;;;;;;;;;;;;;;;;;;1479329;40;7907;-67
2021/07/24 00:38:49;;;;;;;;;;;;;;;;;;1479258;40;7028;-67
2021/07/24 00:39:51;;;;;;;;;;;;;;;;;;1478704;40;7007;-67
2021/07/24 00:40:57;;;;;;;;;;;;;;;;;;1475174;40;7068;-67
2021/07/24 00:42:12;;;;;;;;;;;;;;;;;;1475191;40;7039;-67
2021/07/24 00:43:17;;;;;;;;;;;;;;;;;;1475353;40;6995;-67
2021/07/24 00:44:24;;;;;;;;;;;;;;;;;;1474573;40;7961;-67
2021/07/24 00:45:28;;;;;;;;;;;;;;;;;;1478156;40;7015;-67
2021/07/24 00:46:32;;;;;;;;;;;;;;;;;;1478857;40;7000;-66
2021/07/24 00:47:39;;;;;;;;;;;;;;;;;;1479008;40;7007;-66
2021/07/24 00:48:42;;;;;;;;;;;;;;;;;;1478537;40;7892;-67
2021/07/24 00:49:46;;;;;;;;;;;;;;;;;;1478874;40;6999;-66
2021/07/24 00:50:49;;;;;;;;;;;;;;;;;;1478745;40;7199;-67
2021/07/24 00:51:55;;;;;;;;;;;;;;;;;;1478817;40;7007;-67
2021/07/24 00:53:10;;;;;;;;;;;;;;;;;;1478732;40;7948;-67
2021/07/24 00:54:13;;;;;;;;;;;;;;;;;;1479159;40;7179;-67
2021/07/24 00:55:16;;;;;;;;;;;;;;;;;;1478854;40;7012;-66
2021/07/24 00:56:19;;;;;;;;;;;;;;;;;;1478902;40;7176;-67
2021/07/24 00:57:21;;;;;;;;;;;;;;;;;;1478911;40;7208;-67
2021/07/24 00:58:30;;;;;;;;;;;;;;;;;;1479159;40;7003;-66
2021/07/24 00:59:35;;;;;;;;;;;;;;;;;;1477051;40;7179;-65
2021/07/24 01:00:38;;;;;;;;;;;;;;;;;;1474450;40;7000;-65
2021/07/24 01:01:42;;;;;;;;;;;;;;;;;;1474117;40;7003;-64
2021/07/24 01:02:45;;;;;;;;;;;;;;;;;;1474752;40;6988;-65
2021/07/24 01:03:50;;;;;;;;;;;;;;;;;;1474926;40;7003;-64
2021/07/24 01:04:52;;;;;;;;;;;;;;;;;;1474927;40;7048;-64
2021/07/24 01:05:56;;;;;;;;;;;;;;;;;;1477306;40;7120;-64
2021/07/24 01:07:02;;;;;;;;;;;;;;;;;;1478971;40;7942;-65
2021/07/24 01:08:05;;;;;;;;;;;;;;;;;;1479067;40;7364;-65
2021/07/24 01:09:07;;;;;;;;;;;;;;;;;;1478778;40;7067;-65
2021/07/24 01:10:10;;;;;;;;;;;;;;;;;;1477628;40;7180;-64
2021/07/24 01:11:25;;;;;;;;;;;;;;;;;;1474429;40;7047;-64
2021/07/24 01:12:28;;;;;;;;;;;;;;;;;;1474812;40;7000;-64
2021/07/24 01:13:34;;;;;;;;;;;;;;;;;;1474793;40;7063;-64
2021/07/24 01:14:36;;;;;;;;;;;;;;;;;;1479353;40;7210;-67
2021/07/24 01:15:39;;;;;;;;;;;;;;;;;;1479436;40;7034;-67
2021/07/24 01:16:41;;;;;;;;;;;;;;;;;;1479104;40;7156;-67
2021/07/24 01:17:43;;;;;;;;;;;;;;;;;;1479029;40;7027;-66
2021/07/24 01:18:46;;;;;;;;;;;;;;;;;;1478885;40;7016;-66
2021/07/24 01:19:49;;;;;;;;;;;;;;;;;;1478692;40;7008;-67
2021/07/24 01:21:04;;;;;;;;;;;;;;;;;;1478943;40;7034;-67
2021/07/24 01:22:06;;;;;;;;;;;;;;;;;;1478458;40;7012;-67
2021/07/24 01:23:10;;;;;;;;;;;;;;;;;;1478516;40;7955;-67
2021/07/24 01:24:12;;;;;;;;;;;;;;;;;;1478647;40;7007;-66
2021/07/24 01:25:15;;;;;;;;;;;;;;;;;;1478732;40;7023;-67
2021/07/24 01:26:30;;;;;;;;;;;;;;;;;;1475041;40;7007;-67
2021/07/24 01:27:43;;;;;;;;;;;;;;;;;;1476207;40;7012;-67
2021/07/24 01:28:45;;;;;;;;;;;;;;;;;;1477967;40;7258;-66
2021/07/24 01:29:47;;;;;;;;;;;;;;;;;;1477504;40;7044;-67
2021/07/24 01:30:50;;;;;;;;;;;;;;;;;;1474209;40;7048;-67
2021/07/24 01:31:54;;;;;;;;;;;;;;;;;;1474405;40;7031;-66
2021/07/24 01:32:58;;;;;;;;;;;;;;;;;;1474315;40;7035;-66
2021/07/24 01:34:00;;;;;;;;;;;;;;;;;;1474564;40;7015;-66
2021/07/24 01:35:03;;;;;;;;;;;;;;;;;;1474359;40;7020;-67
2021/07/24 01:36:05;;;;;;;;;;;;;;;;;;1478588;40;7000;-67
2021/07/24 01:37:08;;;;;;;;;;;;;;;;;;1474358;40;7051;-67
2021/07/24 01:38:10;;;;;;;;;;;;;;;;;;1474707;40;7003;-67
2021/07/24 01:39:13;;;;;;;;;;;;;;;;;;1474683;40;7117;-66
2021/07/24 01:40:15;;;;;;;;;;;;;;;;;;1474387;40;7008;-66
2021/07/24 01:41:17;;;;;;;;;;;;;;;;;;1474120;40;7009;-66
2021/07/24 01:42:20;;;;;;;;;;;;;;;;;;1474847;40;7931;-67
2021/07/24 01:43:22;;;;;;;;;;;;;;;;;;1474587;40;7107;-67
2021/07/24 01:44:25;;;;;;;;;;;;;;;;;;1475185;40;7000;-67
2021/07/24 01:45:27;;;;;;;;;;;;;;;;;;1474989;40;7007;-66
2021/07/24 01:46:30;;;;;;;;;;;;;;;;;;1474759;40;7952;-68
2021/07/24 01:47:34;;;;;;;;;;;;;;;;;;1474699;40;7227;-66
2021/07/24 01:49:10;;;;;;;;;;;;;;;;;;1478954;40;7007;-67
2021/07/24 01:52:50;;;;;;;;;;;;;;;;;;1479036;40;6999;-65
2021/07/24 01:53:56;;;;;;;;;;;;;;;;;;1478543;40;7000;-65
2021/07/24 01:55:01;;;;;;;;;;;;;;;;;;1478783;40;7008;-64
2021/07/24 01:56:06;;;;;;;;;;;;;;;;;;1477296;40;7231;-65
2021/07/24 01:57:11;;;;;;;;;;;;;;;;;;1474435;40;7281;-65
2021/07/24 01:58:19;;;;;;;;;;;;;;;;;;1475295;40;7043;-64
2021/07/24 01:59:27;;;;;;;;;;;;;;;;;;1475535;40;7035;-64
2021/07/24 02:00:32;;;;;;;;;;;;;;;;;;1478917;40;6999;-65
2021/07/24 02:01:37;;;;;;;;;;;;;;;;;;1474954;40;7115;-64
2021/07/24 02:02:42;;;;;;;;;;;;;;;;;;1475166;40;7055;-65
2021/07/24 02:03:45;;;;;;;;;;;;;;;;;;1475138;40;7039;-65
2021/07/24 02:04:50;;;;;;;;;;;;;;;;;;1475314;40;7074;-64
2021/07/24 02:05:52;;;;;;;;;;;;;;;;;;1478503;40;7202;-65
2021/07/24 02:06:55;;;;;;;;;;;;;;;;;;1475262;40;7035;-65
2021/07/24 02:08:02;;;;;;;;;;;;;;;;;;1474554;40;7000;-65
2021/07/24 02:09:04;;;;;;;;;;;;;;;;;;1478986;40;7019;-66
2021/07/24 02:10:07;;;;;;;;;;;;;;;;;;1476052;40;7003;-64
2021/07/24 02:11:10;;;;;;;;;;;;;;;;;;1474599;40;7223;-65
2021/07/24 02:12:13;;;;;;;;;;;;;;;;;;1474638;40;7020;-64
2021/07/24 02:13:17;;;;;;;;;;;;;;;;;;1474655;40;7043;-65
2021/07/24 02:14:20;;;;;;;;;;;;;;;;;;1477916;40;7039;-64
2021/07/24 02:15:23;;;;;;;;;;;;;;;;;;1479200;40;7008;-65
2021/07/24 02:16:26;;;;;;;;;;;;;;;;;;1478949;40;7007;-64
2021/07/24 02:17:30;;;;;;;;;;;;;;;;;;1474654;40;7011;-65
2021/07/24 02:18:33;;;;;;;;;;;;;;;;;;1475011;40;8007;-64
2021/07/24 02:19:36;;;;;;;;;;;;;;;;;;1475091;40;7215;-65
2021/07/24 02:20:39;;;;;;;;;;;;;;;;;;1474668;40;7007;-64
2021/07/24 02:21:41;;;;;;;;;;;;;;;;;;1477061;40;7051;-64
2021/07/24 02:22:44;;;;;;;;;;;;;;;;;;1478668;40;7950;-65
2021/07/24 02:23:46;;;;;;;;;;;;;;;;;;1479038;40;7181;-64
2021/07/24 02:24:48;;;;;;;;;;;;;;;;;;1474937;40;7035;-64
2021/07/24 02:25:51;;;;;;;;;;;;;;;;;;1474211;40;7019;-64
2021/07/24 02:26:53;;;;;;;;;;;;;;;;;;1474088;40;7963;-64
2021/07/24 02:27:55;;;;;;;;;;;;;;;;;;1477450;40;7008;-64
2021/07/24 02:28:58;;;;;;;;;;;;;;;;;;1477560;40;7003;-66
2021/07/24 02:30:00;;;;;;;;;;;;;;;;;;1478706;40;7004;-65
2021/07/24 02:31:05;;;;;;;;;;;;;;;;;;1478786;40;7003;-65
2021/07/24 02:32:07;;;;;;;;;;;;;;;;;;1476758;40;7039;-65
2021/07/24 02:33:09;;;;;;;;;;;;;;;;;;1474207;40;7004;-64
2021/07/24 02:34:12;;;;;;;;;;;;;;;;;;1473632;40;7044;-64
2021/07/24 02:35:14;;;;;;;;;;;;;;;;;;1473501;40;7000;-64
2021/07/24 02:36:17;;;;;;;;;;;;;;;;;;1474375;40;7003;-65
2021/07/24 02:37:19;;;;;;;;;;;;;;;;;;1474743;40;6999;-64
2021/07/24 02:38:22;;;;;;;;;;;;;;;;;;1474818;40;7047;-64
2021/07/24 02:39:25;;;;;;;;;;;;;;;;;;1474526;40;7049;-65
2021/07/24 02:40:27;;;;;;;;;;;;;;;;;;1473268;40;7912;-64
2021/07/24 02:41:29;;;;;;;;;;;;;;;;;;1478367;40;7007;-65
2021/07/24 02:42:32;;;;;;;;;;;;;;;;;;1478552;40;7004;-64
2021/07/24 02:43:34;;;;;;;;;;;;;;;;;;1478894;40;7003;-64
2021/07/24 02:44:37;;;;;;;;;;;;;;;;;;1474574;40;7027;-64
2021/07/24 02:45:39;;;;;;;;;;;;;;;;;;1474429;40;7203;-65
2021/07/24 02:46:42;;;;;;;;;;;;;;;;;;1474421;40;7253;-64
2021/07/24 02:47:44;;;;;;;;;;;;;;;;;;1474713;40;6999;-64
2021/07/24 02:48:47;;;;;;;;;;;;;;;;;;1474795;40;7000;-64
2021/07/24 02:49:50;;;;;;;;;;;;;;;;;;1474841;40;7111;-65
2021/07/24 02:50:52;;;;;;;;;;;;;;;;;;1478142;40;7035;-65
2021/07/24 02:51:55;;;;;;;;;;;;;;;;;;1478605;40;7000;-65
2021/07/24 02:52:57;;;;;;;;;;;;;;;;;;1478697;40;6999;-65
2021/07/24 02:54:00;;;;;;;;;;;;;;;;;;1479228;40;7024;-65
2021/07/24 02:55:02;;;;;;;;;;;;;;;;;;1479464;40;7875;-64
2021/07/24 02:56:04;;;;;;;;;;;;;;;;;;1477594;40;7035;-64
2021/07/24 02:57:07;;;;;;;;;;;;;;;;;;1474741;40;7048;-65
2021/07/24 02:58:09;;;;;;;;;;;;;;;;;;1474780;40;7007;-65
2021/07/24 02:59:11;;;;;;;;;;;;;;;;;;1475404;40;7911;-64
2021/07/24 03:00:14;;;;;;;;;;;;;;;;;;1478912;40;7047;-64
2021/07/24 03:01:17;;;;;;;;;;;;;;;;;;1476869;40;8250;-64
2021/07/24 03:02:19;;;;;;;;;;;;;;;;;;1474389;40;7039;-65
2021/07/24 03:03:25;;;;;;;;;;;;;;;;;;1474319;40;7031;-64
2021/07/24 03:04:27;;;;;;;;;;;;;;;;;;1474458;40;7132;-65
2021/07/24 03:05:30;;;;;;;;;;;;;;;;;;1474782;40;7000;-65
2021/07/24 03:06:32;;;;;;;;;;;;;;;;;;1476588;40;7003;-65
2021/07/24 03:07:34;;;;;;;;;;;;;;;;;;1479185;40;7051;-64
2021/07/24 03:08:37;;;;;;;;;;;;;;;;;;1478853;40;7243;-64
2021/07/24 03:09:39;;;;;;;;;;;;;;;;;;1478959;40;7004;-64
2021/07/24 03:10:42;;;;;;;;;;;;;;;;;;1479262;40;7051;-64
2021/07/24 03:11:44;;;;;;;;;;;;;;;;;;1479189;40;7008;-65
2021/07/24 03:12:47;;;;;;;;;;;;;;;;;;1479098;40;7051;-64
2021/07/24 03:13:49;;;;;;;;;;;;;;;;;;1476421;40;7412;-65
2021/07/24 03:14:53;;;;;;;;;;;;;;;;;;1474410;40;6999;-64
2021/07/24 03:15:55;;;;;;;;;;;;;;;;;;1474680;40;7031;-64
2021/07/24 03:16:58;;;;;;;;;;;;;;;;;;1474816;40;7042;-64
2021/07/24 03:18:00;;;;;;;;;;;;;;;;;;1475214;40;7158;-65
2021/07/24 03:19:02;;;;;;;;;;;;;;;;;;1474557;40;7003;-65
2021/07/24 03:20:05;;;;;;;;;;;;;;;;;;1475504;40;7192;-65
2021/07/24 03:21:07;;;;;;;;;;;;;;;;;;1478670;40;7000;-64
2021/07/24 03:22:10;;;;;;;;;;;;;;;;;;1478672;40;7047;-64
2021/07/24 03:23:12;;;;;;;;;;;;;;;;;;1474051;40;7052;-65
2021/07/24 03:24:16;;;;;;;;;;;;;;;;;;1474547;40;7015;-65
2021/07/24 03:25:20;;;;;;;;;;;;;;;;;;1474240;40;7027;-65
2021/07/24 03:26:23;;;;;;;;;;;;;;;;;;1473852;40;7003;-64
2021/07/24 03:27:25;;;;;;;;;;;;;;;;;;1473742;40;7012;-64
2021/07/24 03:28:27;;;;;;;;;;;;;;;;;;1474424;40;7031;-64
2021/07/24 03:29:30;;;;;;;;;;;;;;;;;;1474331;40;7012;-65
2021/07/24 03:30:32;;;;;;;;;;;;;;;;;;1477807;40;6987;-65
2021/07/24 03:31:35;;;;;;;;;;;;;;;;;;1478121;40;7030;-65
2021/07/24 03:32:38;;;;;;;;;;;;;;;;;;1478308;40;7020;-65
2021/07/24 03:33:40;;;;;;;;;;;;;;;;;;1478700;40;7047;-64
2021/07/24 03:34:42;;;;;;;;;;;;;;;;;;1474136;40;7051;-65
2021/07/24 03:35:45;;;;;;;;;;;;;;;;;;1474039;40;7023;-64
2021/07/24 03:36:47;;;;;;;;;;;;;;;;;;1478057;40;7009;-65
2021/07/24 03:37:50;;;;;;;;;;;;;;;;;;1478743;40;7008;-64
2021/07/24 03:38:52;;;;;;;;;;;;;;;;;;1478877;40;6999;-65
2021/07/24 03:39:54;;;;;;;;;;;;;;;;;;1477757;40;7048;-65
2021/07/24 03:40:57;;;;;;;;;;;;;;;;;;1476583;40;7000;-64
2021/07/24 03:41:59;;;;;;;;;;;;;;;;;;1474724;40;7048;-64
2021/07/24 03:43:05;;;;;;;;;;;;;;;;;;1474953;40;7003;-65
2021/07/24 03:44:07;;;;;;;;;;;;;;;;;;1474455;40;7035;-65
2021/07/24 03:45:10;;;;;;;;;;;;;;;;;;1474858;40;7939;-65
2021/07/24 03:46:16;;;;;;;;;;;;;;;;;;1474419;40;7007;-65
2021/07/24 03:47:19;;;;;;;;;;;;;;;;;;1474622;40;7127;-65
2021/07/24 03:48:22;;;;;;;;;;;;;;;;;;1474365;40;7083;-64
2021/07/24 03:49:24;;;;;;;;;;;;;;;;;;1474819;40;7028;-65
2021/07/24 03:50:27;;;;;;;;;;;;;;;;;;1475173;40;7042;-65
2021/07/24 03:51:30;;;;;;;;;;;;;;;;;;1476530;40;7943;-64
2021/07/24 03:52:33;;;;;;;;;;;;;;;;;;1482102;40;7261;-66
2021/07/24 03:53:36;;;;;;;;;;;;;;;;;;1482040;40;7007;-65
2021/07/24 03:54:39;;;;;;;;;;;;;;;;;;1474287;40;7044;-65
2021/07/24 03:55:41;;;;;;;;;;;;;;;;;;1474067;40;7131;-65
2021/07/24 03:56:43;;;;;;;;;;;;;;;;;;1476167;40;7003;-64
2021/07/24 03:57:46;;;;;;;;;;;;;;;;;;1478566;40;7003;-64
2021/07/24 03:58:51;;;;;;;;;;;;;;;;;;1477805;40;7019;-64
2021/07/24 03:59:53;;;;;;;;;;;;;;;;;;1474935;40;8058;-65
2021/07/24 04:00:56;;;;;;;;;;;;;;;;;;1474826;40;7031;-65
2021/07/24 04:01:58;;;;;;;;;;;;;;;;;;1474398;40;7047;-64
2021/07/24 04:03:02;;;;;;;;;;;;;;;;;;1474433;40;7019;-65
2021/07/24 04:04:05;;;;;;;;;;;;;;;;;;1474280;40;7040;-65
2021/07/24 04:05:08;;;;;;;;;;;;;;;;;;1474734;40;7270;-64
2021/07/24 04:06:19;;;;;;;;;;;;;;;;;;1474479;40;7007;-65
2021/07/24 04:07:21;;;;;;;;;;;;;;;;;;1474625;40;7000;-65
2021/07/24 04:08:25;;;;;;;;;;;;;;;;;;1474682;40;7016;-64
2021/07/24 04:09:28;;;;;;;;;;;;;;;;;;1475074;40;7007;-65
2021/07/24 04:10:32;;;;;;;;;;;;;;;;;;1474371;40;7219;-64
2021/07/24 04:11:35;;;;;;;;;;;;;;;;;;1474631;40;7202;-64
2021/07/24 04:12:41;;;;;;;;;;;;;;;;;;1475268;40;8038;-64
2021/07/24 04:13:43;;;;;;;;;;;;;;;;;;1477002;40;7039;-65
2021/07/24 04:14:46;;;;;;;;;;;;;;;;;;1478398;40;7051;-64
2021/07/24 04:15:48;;;;;;;;;;;;;;;;;;1478845;40;7038;-64
2021/07/24 04:16:52;;;;;;;;;;;;;;;;;;1478312;40;7031;-64
2021/07/24 04:17:54;;;;;;;;;;;;;;;;;;1478406;40;7032;-64
2021/07/24 04:18:58;;;;;;;;;;;;;;;;;;1478919;40;6999;-65
2021/07/24 04:20:02;;;;;;;;;;;;;;;;;;1475168;40;7056;-64
2021/07/24 04:21:04;;;;;;;;;;;;;;;;;;1478476;40;7055;-64
2021/07/24 04:22:07;;;;;;;;;;;;;;;;;;1477399;40;7133;-64
2021/07/24 04:23:09;;;;;;;;;;;;;;;;;;1477814;40;7219;-65
2021/07/24 04:24:12;;;;;;;;;;;;;;;;;;1474294;40;7000;-64
2021/07/24 04:25:15;;;;;;;;;;;;;;;;;;1474401;40;8038;-65
2021/07/24 04:26:18;;;;;;;;;;;;;;;;;;1477015;40;7024;-64
2021/07/24 04:27:20;;;;;;;;;;;;;;;;;;1478544;40;7038;-64
2021/07/24 04:28:24;;;;;;;;;;;;;;;;;;1474287;40;7031;-64
2021/07/24 04:29:26;;;;;;;;;;;;;;;;;;1474145;40;7062;-65
2021/07/24 04:30:29;;;;;;;;;;;;;;;;;;1473922;40;7003;-64
2021/07/24 04:31:31;;;;;;;;;;;;;;;;;;1474222;40;7012;-65
2021/07/24 04:32:34;;;;;;;;;;;;;;;;;;1474208;40;7027;-65
2021/07/24 04:33:36;;;;;;;;;;;;;;;;;;1473375;40;7140;-65
2021/07/24 04:34:39;;;;;;;;;;;;;;;;;;1474868;40;7012;-65
2021/07/24 04:35:48;;;;;;;;;;;;;;;;;;1478091;40;7031;-65
2021/07/24 04:36:51;;;;;;;;;;;;;;;;;;1478113;40;7003;-65
2021/07/24 04:37:53;;;;;;;;;;;;;;;;;;1477661;40;7007;-65
2021/07/24 04:38:56;;;;;;;;;;;;;;;;;;1473976;40;7007;-65
2021/07/24 04:39:58;;;;;;;;;;;;;;;;;;1473891;40;7247;-65
2021/07/24 04:41:01;;;;;;;;;;;;;;;;;;1474163;40;7007;-65
2021/07/24 04:42:03;;;;;;;;;;;;;;;;;;1478360;40;7158;-65
2021/07/24 04:43:05;;;;;;;;;;;;;;;;;;1475964;40;7003;-65
2021/07/24 04:44:08;;;;;;;;;;;;;;;;;;1473657;40;7003;-65
2021/07/24 04:45:11;;;;;;;;;;;;;;;;;;1474740;40;7114;-65
2021/07/24 04:46:13;;;;;;;;;;;;;;;;;;1474471;40;7020;-65
2021/07/24 04:47:15;;;;;;;;;;;;;;;;;;1476505;40;7052;-65
2021/07/24 04:48:19;;;;;;;;;;;;;;;;;;1478279;40;7099;-65
2021/07/24 04:49:21;;;;;;;;;;;;;;;;;;1478957;40;7051;-65
2021/07/24 04:50:23;;;;;;;;;;;;;;;;;;1473865;40;7015;-65
2021/07/24 04:51:26;;;;;;;;;;;;;;;;;;1474150;40;8366;-65
2021/07/24 04:52:29;;;;;;;;;;;;;;;;;;1474079;40;7032;-65
2021/07/24 04:53:32;;;;;;;;;;;;;;;;;;1474512;40;7039;-65
2021/07/24 04:54:35;;;;;;;;;;;;;;;;;;1473949;40;7015;-65
2021/07/24 04:55:38;;;;;;;;;;;;;;;;;;1474055;40;7007;-65
2021/07/24 04:56:41;;;;;;;;;;;;;;;;;;1474214;40;7968;-65
2021/07/24 04:57:44;;;;;;;;;;;;;;;;;;1474459;40;7527;-65
2021/07/24 04:58:46;;;;;;;;;;;;;;;;;;1474101;40;7922;-65
2021/07/24 04:59:49;;;;;;;;;;;;;;;;;;1475076;40;7048;-65
2021/07/24 05:00:52;;;;;;;;;;;;;;;;;;1474261;40;7003;-64
2021/07/24 05:01:55;;;;;;;;;;;;;;;;;;1474372;40;6999;-65
2021/07/24 05:03:00;;;;;;;;;;;;;;;;;;1474216;40;7074;-65
2021/07/24 05:04:02;;;;;;;;;;;;;;;;;;1474633;40;7000;-65
2021/07/24 05:05:05;;;;;;;;;;;;;;;;;;1474563;40;7035;-65
2021/07/24 05:06:08;;;;;;;;;;;;;;;;;;1474808;40;7008;-65
2021/07/24 05:07:13;;;;;;;;;;;;;;;;;;1478651;40;7027;-65
2021/07/24 05:08:17;;;;;;;;;;;;;;;;;;1479067;40;7007;-65
2021/07/24 05:09:19;;;;;;;;;;;;;;;;;;1478804;40;7039;-65
2021/07/24 05:10:21;;;;;;;;;;;;;;;;;;1478958;40;7039;-65
2021/07/24 05:11:24;;;;;;;;;;;;;;;;;;1479119;40;7039;-65
2021/07/24 05:12:26;;;;;;;;;;;;;;;;;;1479443;40;7035;-65
2021/07/24 05:13:29;;;;;;;;;;;;;;;;;;1477374;40;7155;-65
2021/07/24 05:14:31;;;;;;;;;;;;;;;;;;1474425;40;6999;-65
2021/07/24 05:15:34;;;;;;;;;;;;;;;;;;1474681;40;7008;-65
2021/07/24 05:16:37;;;;;;;;;;;;;;;;;;1475365;40;7023;-65
2021/07/24 05:17:42;;;;;;;;;;;;;;;;;;1475553;40;7020;-65
2021/07/24 05:18:45;;;;;;;;;;;;;;;;;;1479325;40;7038;-65
2021/07/24 05:19:47;;;;;;;;;;;;;;;;;;1474453;40;7040;-65
2021/07/24 05:20:49;;;;;;;;;;;;;;;;;;1474779;40;7007;-64
2021/07/24 05:21:52;;;;;;;;;;;;;;;;;;1478303;40;7043;-65
2021/07/24 05:22:54;;;;;;;;;;;;;;;;;;1478715;40;7016;-65
2021/07/24 05:23:56;;;;;;;;;;;;;;;;;;1474128;40;7063;-65
2021/07/24 05:24:59;;;;;;;;;;;;;;;;;;1474878;40;7951;-65
2021/07/24 05:26:04;;;;;;;;;;;;;;;;;;1474466;40;7944;-65
2021/07/24 05:27:06;;;;;;;;;;;;;;;;;;1474784;40;7031;-64
2021/07/24 05:28:09;;;;;;;;;;;;;;;;;;1475150;40;7039;-65
2021/07/24 05:29:12;;;;;;;;;;;;;;;;;;1478611;40;8059;-64
2021/07/24 05:30:15;;;;;;;;;;;;;;;;;;1478060;40;7199;-64
2021/07/24 05:31:18;;;;;;;;;;;;;;;;;;1478849;40;7035;-65
2021/07/24 05:32:20;;;;;;;;;;;;;;;;;;1478772;40;7031;-64
2021/07/24 05:33:23;;;;;;;;;;;;;;;;;;1478529;40;7007;-64
2021/07/24 05:34:25;;;;;;;;;;;;;;;;;;1478361;40;7926;-65
2021/07/24 05:35:28;;;;;;;;;;;;;;;;;;1478860;40;7050;-64
2021/07/24 05:36:30;;;;;;;;;;;;;;;;;;1475953;40;7031;-64
2021/07/24 05:37:33;;;;;;;;;;;;;;;;;;1474091;40;7035;-64
2021/07/24 05:38:36;;;;;;;;;;;;;;;;;;1474078;40;7012;-64
2021/07/24 05:39:38;;;;;;;;;;;;;;;;;;1474810;40;7056;-64
2021/07/24 05:40:41;;;;;;;;;;;;;;;;;;1473909;40;6999;-65
2021/07/24 05:41:43;;;;;;;;;;;;;;;;;;1477905;40;7031;-64
2021/07/24 05:42:45;;;;;;;;;;;;;;;;;;1478919;40;7035;-65
2021/07/24 05:43:48;;;;;;;;;;;;;;;;;;1479297;40;7048;-66
2021/07/24 05:44:50;;;;;;;;;;;;;;;;;;1474971;40;7123;-65
2021/07/24 05:45:53;;;;;;;;;;;;;;;;;;1474557;40;7811;-64
2021/07/24 05:46:58;;;;;;;;;;;;;;;;;;1478048;40;7902;-65
2021/07/24 05:48:00;;;;;;;;;;;;;;;;;;1479403;40;7052;-64
2021/07/24 05:49:03;;;;;;;;;;;;;;;;;;1476959;40;7322;-65
2021/07/24 05:50:06;;;;;;;;;;;;;;;;;;1478687;40;7000;-64
2021/07/24 05:51:08;;;;;;;;;;;;;;;;;;1478945;40;6999;-65
2021/07/24 05:52:13;;;;;;;;;;;;;;;;;;1474325;40;8858;-64
2021/07/24 05:53:16;;;;;;;;;;;;;;;;;;1474747;40;7007;-64
2021/07/24 05:54:22;;;;;;;;;;;;;;;;;;1475008;40;7039;-64
2021/07/24 05:55:24;;;;;;;;;;;;;;;;;;1474552;40;7072;-64
2021/07/24 05:56:27;;;;;;;;;;;;;;;;;;1475292;40;7000;-64
2021/07/24 05:57:29;;;;;;;;;;;;;;;;;;1475074;40;7995;-64
2021/07/24 05:58:32;;;;;;;;;;;;;;;;;;1474967;40;6995;-64
2021/07/24 05:59:35;;;;;;;;;;;;;;;;;;1476895;40;7032;-64
2021/07/24 06:00:37;;;;;;;;;;;;;;;;;;1479251;40;7039;-64
2021/07/24 06:01:40;;;;;;;;;;;;;;;;;;1479407;40;7012;-64
2021/07/24 06:02:43;;;;;;;;;;;;;;;;;;1479448;40;7016;-64
2021/07/24 06:03:45;;;;;;;;;;;;;;;;;;1479176;40;7152;-64
2021/07/24 06:04:50;;;;;;;;;;;;;;;;;;1475460;40;7200;-65
2021/07/24 06:05:52;;;;;;;;;;;;;;;;;;1475231;40;7211;-64
2021/07/24 06:06:55;;;;;;;;;;;;;;;;;;1474926;40;7039;-64
2021/07/24 06:07:57;;;;;;;;;;;;;;;;;;1475146;40;7003;-64
2021/07/24 06:09:00;;;;;;;;;;;;;;;;;;1475111;40;7412;-64
2021/07/24 06:10:03;;;;;;;;;;;;;;;;;;1474391;40;6996;-64
2021/07/24 06:11:05;;;;;;;;;;;;;;;;;;1474499;40;7007;-64
2021/07/24 06:12:08;;;;;;;;;;;;;;;;;;1475185;40;7007;-64
2021/07/24 06:13:11;;;;;;;;;;;;;;;;;;1475132;40;7227;-64
2021/07/24 06:14:13;;;;;;;;;;;;;;;;;;1476046;40;7004;-64
2021/07/24 06:15:16;;;;;;;;;;;;;;;;;;1474736;40;7012;-64
2021/07/24 06:16:18;;;;;;;;;;;;;;;;;;1475282;40;6999;-64
2021/07/24 06:17:21;;;;;;;;;;;;;;;;;;1475249;40;7056;-64
2021/07/24 06:18:24;;;;;;;;;;;;;;;;;;1474757;40;7031;-64
2021/07/24 06:19:27;;;;;;;;;;;;;;;;;;1474980;40;7044;-65
2021/07/24 06:20:30;;;;;;;;;;;;;;;;;;1475203;40;7939;-65
2021/07/24 06:21:32;;;;;;;;;;;;;;;;;;1475638;40;7051;-65
2021/07/24 06:22:35;;;;;;;;;;;;;;;;;;1477908;40;6999;-64
2021/07/24 06:23:37;;;;;;;;;;;;;;;;;;1478150;40;7052;-64
2021/07/24 06:24:39;;;;;;;;;;;;;;;;;;1478878;40;7007;-65
2021/07/24 06:25:42;;;;;;;;;;;;;;;;;;1478299;40;8661;-64
2021/07/24 06:26:45;;;;;;;;;;;;;;;;;;1474522;40;7315;-65
2021/07/24 06:27:48;;;;;;;;;;;;;;;;;;1474670;40;7007;-64
2021/07/24 06:28:51;;;;;;;;;;;;;;;;;;1474626;40;7948;-64
2021/07/24 06:29:53;;;;;;;;;;;;;;;;;;1478019;40;7011;-64
2021/07/24 06:30:56;;;;;;;;;;;;;;;;;;1475527;40;7007;-65
2021/07/24 06:31:58;;;;;;;;;;;;;;;;;;1474856;40;7016;-64
2021/07/24 06:33:01;;;;;;;;;;;;;;;;;;1474302;40;7043;-64
2021/07/24 06:34:04;;;;;;;;;;;;;;;;;;1474797;40;7035;-64
2021/07/24 06:35:07;;;;;;;;;;;;;;;;;;1474730;40;7035;-65
2021/07/24 06:36:09;;;;;;;;;;;;;;;;;;1474307;40;7035;-65
2021/07/24 06:37:11;;;;;;;;;;;;;;;;;;1474085;40;7007;-64
2021/07/24 06:38:14;;;;;;;;;;;;;;;;;;1475051;40;7199;-64
2021/07/24 06:39:17;;;;;;;;;;;;;;;;;;1474889;40;7000;-65
2021/07/24 06:40:20;;;;;;;;;;;;;;;;;;1473685;40;7115;-64
2021/07/24 06:41:23;;;;;;;;;;;;;;;;;;1474651;40;7116;-64
2021/07/24 06:42:25;;;;;;;;;;;;;;;;;;1478848;40;7040;-64
2021/07/24 06:43:28;;;;;;;;;;;;;;;;;;1479139;40;7000;-65
2021/07/24 06:44:30;;;;;;;;;;;;;;;;;;1478870;40;7235;-64
2021/07/24 06:45:32;;;;;;;;;;;;;;;;;;1478704;40;7071;-64
2021/07/24 06:46:35;;;;;;;;;;;;;;;;;;1479269;40;7007;-65
2021/07/24 06:47:38;;;;;;;;;;;;;;;;;;1477601;40;7007;-64
2021/07/24 06:48:40;;;;;;;;;;;;;;;;;;1475044;40;7003;-64
2021/07/24 06:49:43;;;;;;;;;;;;;;;;;;1474921;40;7014;-66
2021/07/24 06:50:46;;;;;;;;;;;;;;;;;;1474828;40;7912;-64
2021/07/24 06:51:48;;;;;;;;;;;;;;;;;;1475313;40;6999;-64
2021/07/24 06:52:57;;;;;;;;;;;;;;;;;;1477271;40;7007;-64
2021/07/24 06:53:59;;;;;;;;;;;;;;;;;;1482379;40;7282;-64
2021/07/24 06:55:02;;;;;;;;;;;;;;;;;;1482430;40;7039;-65
2021/07/24 06:56:05;;;;;;;;;;;;;;;;;;1474759;40;7628;-65
2021/07/24 06:57:07;;;;;;;;;;;;;;;;;;1475224;40;7036;-65
2021/07/24 06:58:09;;;;;;;;;;;;;;;;;;1475009;40;7015;-64
2021/07/24 06:59:12;;;;;;;;;;;;;;;;;;1477581;40;7007;-65
2021/07/24 07:00:14;;;;;;;;;;;;;;;;;;1475039;40;7012;-64
2021/07/24 07:01:17;;;;;;;;;;;;;;;;;;1474699;40;7942;-65
2021/07/24 07:02:20;;;;;;;;;;;;;;;;;;1474875;40;7012;-65
2021/07/24 07:03:22;;;;;;;;;;;;;;;;;;1474847;40;7169;-65
2021/07/24 07:04:26;;;;;;;;;;;;;;;;;;1475870;40;7047;-65
2021/07/24 07:05:29;;;;;;;;;;;;;;;;;;1474969;40;7027;-64
2021/07/24 07:06:31;;;;;;;;;;;;;;;;;;1474750;40;6999;-65
2021/07/24 07:07:34;;;;;;;;;;;;;;;;;;1474767;40;7043;-64
2021/07/24 07:08:36;;;;;;;;;;;;;;;;;;1476674;40;7016;-64
2021/07/24 07:09:39;;;;;;;;;;;;;;;;;;1479194;40;7007;-64
2021/07/24 07:10:41;;;;;;;;;;;;;;;;;;1477907;40;7007;-64
2021/07/24 07:11:44;;;;;;;;;;;;;;;;;;1475113;40;7035;-65
2021/07/24 07:12:48;;;;;;;;;;;;;;;;;;1475100;40;7004;-65
2021/07/24 07:13:50;;;;;;;;;;;;;;;;;;1476984;40;7013;-65
2021/07/24 07:14:53;;;;;;;;;;;;;;;;;;1478801;40;7003;-64
2021/07/24 07:15:55;;;;;;;;;;;;;;;;;;1478973;40;7004;-65
2021/07/24 07:16:57;;;;;;;;;;;;;;;;;;1478904;40;7039;-65
2021/07/24 07:18:00;;;;;;;;;;;;;;;;;;1478945;40;7015;-65
2021/07/24 07:19:04;;;;;;;;;;;;;;;;;;1477864;40;7207;-65
2021/07/24 07:20:07;;;;;;;;;;;;;;;;;;1479070;40;7003;-65
2021/07/24 07:21:10;;;;;;;;;;;;;;;;;;1475945;40;7372;-65